sensor_id;sensor_type;location;lat;lon;timestamp;P1;durP1;ratioP1;P2;durP2;ratioP2
63050;SDS011;49136;47.416;19.402;2024-02-15T00:00:28;1999.90;;;999.90;;
63050;SDS011;49136;47.416;19.402;2024-02-15T00:02:54;1999.90;;;999.90;;
63050;SDS011;49136;47.416;19.402;2024-02-15T00:05:19;1999.90;;;999.90;;
63050;SDS011;49136;47.416;19.402;2024-02-15T00:07:45;1999.90;;;999.90;;
63050;SDS011;49136;47.416;19.402;2024-02-15T00:10:13;1999.90;;;999.90;;
63050;SDS011;49136;47.416;19.402;2024-02-15T00:12:39;1999.90;;;999.90;;
63050;SDS011;49136;47.416;19.402;2024-02-15T00:15:04;1999.90;;;999.90;;
63050;SDS011;49136;47.416;19.402;2024-02-15T00:17:30;1999.90;;;999.90;;
63050;SDS011;49136;47.416;19.402;2024-02-15T00:19:55;1999.90;;;999.90;;
63050;SDS011;49136;47.416;19.402;2024-02-15T00:22:21;1999.90;;;999.90;;
63050;SDS011;49136;47.416;19.402;2024-02-15T00:24:47;1999.90;;;999.90;;
63050;SDS011;49136;47.416;19.402;2024-02-15T00:27:14;1999.90;;;999.90;;
63050;SDS011;49136;47.416;19.402;2024-02-15T00:29:40;1999.90;;;999.90;;
63050;SDS011;49136;47.416;19.402;2024-02-15T00:32:06;1999.90;;;999.90;;
63050;SDS011;49136;47.416;19.402;2024-02-15T00:34:32;1999.90;;;999.90;;
63050;SDS011;49136;47.416;19.402;2024-02-15T00:36:57;1999.90;;;999.90;;
63050;SDS011;49136;47.416;19.402;2024-02-15T00:39:22;1999.90;;;999.90;;
63050;SDS011;49136;47.416;19.402;2024-02-15T00:41:48;1999.90;;;999.90;;
63050;SDS011;49136;47.416;19.402;2024-02-15T00:44:13;1999.90;;;999.90;;
63050;SDS011;49136;47.416;19.402;2024-02-15T00:46:39;1999.90;;;999.90;;
63050;SDS011;49136;47.416;19.402;2024-02-15T00:49:06;1999.90;;;999.90;;
63050;SDS011;49136;47.416;19.402;2024-02-15T00:51:35;1999.90;;;999.90;;
63050;SDS011;49136;47.416;19.402;2024-02-15T00:54:01;1999.90;;;999.90;;
63050;SDS011;49136;47.416;19.402;2024-02-15T00:56:28;1999.90;;;999.90;;
63050;SDS011;49136;47.416;19.402;2024-02-15T00:58:56;1999.90;;;999.90;;
63050;SDS011;49136;47.416;19.402;2024-02-15T01:01:21;1999.90;;;999.90;;
63050;SDS011;49136;47.416;19.402;2024-02-15T01:03:47;1999.90;;;999.90;;
63050;SDS011;49136;47.416;19.402;2024-02-15T01:06:12;1999.90;;;999.90;;
63050;SDS011;49136;47.416;19.402;2024-02-15T01:08:38;1999.90;;;999.90;;
63050;SDS011;49136;47.416;19.402;2024-02-15T01:11:04;1999.90;;;999.90;;
63050;SDS011;49136;47.416;19.402;2024-02-15T01:13:29;1999.90;;;999.90;;
63050;SDS011;49136;47.416;19.402;2024-02-15T01:15:55;1999.90;;;999.90;;
63050;SDS011;49136;47.416;19.402;2024-02-15T01:18:20;1999.90;;;999.90;;
63050;SDS011;49136;47.416;19.402;2024-02-15T01:20:46;1999.90;;;999.90;;
63050;SDS011;49136;47.416;19.402;2024-02-15T01:23:12;1999.90;;;999.90;;
63050;SDS011;49136;47.416;19.402;2024-02-15T01:25:37;1999.90;;;999.90;;
63050;SDS011;49136;47.416;19.402;2024-02-15T01:28:04;1999.90;;;999.90;;
63050;SDS011;49136;47.416;19.402;2024-02-15T01:30:30;1999.90;;;999.90;;
63050;SDS011;49136;47.416;19.402;2024-02-15T01:32:56;1999.90;;;999.90;;
63050;SDS011;49136;47.416;19.402;2024-02-15T01:35:22;1999.90;;;999.90;;
63050;SDS011;49136;47.416;19.402;2024-02-15T01:37:48;1999.90;;;999.90;;
63050;SDS011;49136;47.416;19.402;2024-02-15T01:40:13;1999.90;;;999.90;;
63050;SDS011;49136;47.416;19.402;2024-02-15T01:42:38;1999.90;;;999.90;;
63050;SDS011;49136;47.416;19.402;2024-02-15T01:45:05;1999.90;;;999.90;;
63050;SDS011;49136;47.416;19.402;2024-02-15T01:47:31;1999.90;;;999.90;;
63050;SDS011;49136;47.416;19.402;2024-02-15T01:49:56;1999.90;;;999.90;;
63050;SDS011;49136;47.416;19.402;2024-02-15T01:52:22;1999.90;;;999.90;;
63050;SDS011;49136;47.416;19.402;2024-02-15T01:54:48;1999.90;;;999.90;;
63050;SDS011;49136;47.416;19.402;2024-02-15T01:57:18;1999.90;;;999.90;;
63050;SDS011;49136;47.416;19.402;2024-02-15T01:59:46;1999.90;;;999.90;;
63050;SDS011;49136;47.416;19.402;2024-02-15T02:02:12;1999.90;;;999.90;;
63050;SDS011;49136;47.416;19.402;2024-02-15T02:04:39;1999.90;;;999.90;;
63050;SDS011;49136;47.416;19.402;2024-02-15T02:07:06;1999.90;;;999.90;;
63050;SDS011;49136;47.416;19.402;2024-02-15T02:09:32;1999.90;;;999.90;;
63050;SDS011;49136;47.416;19.402;2024-02-15T02:11:58;1999.90;;;999.90;;
63050;SDS011;49136;47.416;19.402;2024-02-15T02:14:24;1999.90;;;999.90;;
63050;SDS011;49136;47.416;19.402;2024-02-15T02:16:50;1999.90;;;999.90;;
63050;SDS011;49136;47.416;19.402;2024-02-15T02:19:16;1999.90;;;999.90;;
63050;SDS011;49136;47.416;19.402;2024-02-15T02:21:42;1999.90;;;999.90;;
63050;SDS011;49136;47.416;19.402;2024-02-15T02:24:21;1999.90;;;999.90;;
63050;SDS011;49136;47.416;19.402;2024-02-15T02:26:48;1999.90;;;999.90;;
63050;SDS011;49136;47.416;19.402;2024-02-15T02:29:15;1999.90;;;999.90;;
63050;SDS011;49136;47.416;19.402;2024-02-15T02:31:41;1999.90;;;999.90;;
63050;SDS011;49136;47.416;19.402;2024-02-15T02:34:07;1999.90;;;999.90;;
63050;SDS011;49136;47.416;19.402;2024-02-15T02:36:33;1999.90;;;999.90;;
63050;SDS011;49136;47.416;19.402;2024-02-15T02:38:59;1999.90;;;999.90;;
63050;SDS011;49136;47.416;19.402;2024-02-15T02:41:26;1999.90;;;999.90;;
63050;SDS011;49136;47.416;19.402;2024-02-15T02:43:53;1999.90;;;999.90;;
63050;SDS011;49136;47.416;19.402;2024-02-15T02:46:19;1999.90;;;999.90;;
63050;SDS011;49136;47.416;19.402;2024-02-15T02:48:45;1999.90;;;999.90;;
63050;SDS011;49136;47.416;19.402;2024-02-15T02:51:10;1999.90;;;999.90;;
63050;SDS011;49136;47.416;19.402;2024-02-15T02:53:36;1999.90;;;999.90;;
63050;SDS011;49136;47.416;19.402;2024-02-15T02:56:01;1999.90;;;999.90;;
63050;SDS011;49136;47.416;19.402;2024-02-15T02:58:27;1999.90;;;999.90;;
63050;SDS011;49136;47.416;19.402;2024-02-15T03:00:53;1999.90;;;999.90;;
63050;SDS011;49136;47.416;19.402;2024-02-15T03:03:20;1999.90;;;999.90;;
63050;SDS011;49136;47.416;19.402;2024-02-15T03:05:45;1999.90;;;999.90;;
63050;SDS011;49136;47.416;19.402;2024-02-15T03:08:11;1999.90;;;999.90;;
63050;SDS011;49136;47.416;19.402;2024-02-15T03:10:38;1999.90;;;999.90;;
63050;SDS011;49136;47.416;19.402;2024-02-15T03:13:03;1999.90;;;999.90;;
63050;SDS011;49136;47.416;19.402;2024-02-15T03:15:30;1999.90;;;999.90;;
63050;SDS011;49136;47.416;19.402;2024-02-15T03:17:58;1999.90;;;999.90;;
63050;SDS011;49136;47.416;19.402;2024-02-15T03:20:23;1999.90;;;999.90;;
63050;SDS011;49136;47.416;19.402;2024-02-15T03:22:54;1999.90;;;999.90;;
63050;SDS011;49136;47.416;19.402;2024-02-15T03:25:21;1999.90;;;999.90;;
63050;SDS011;49136;47.416;19.402;2024-02-15T03:27:49;1999.90;;;999.90;;
63050;SDS011;49136;47.416;19.402;2024-02-15T03:30:17;1999.90;;;999.90;;
63050;SDS011;49136;47.416;19.402;2024-02-15T03:32:44;1999.90;;;999.90;;
63050;SDS011;49136;47.416;19.402;2024-02-15T03:35:10;1999.90;;;999.90;;
63050;SDS011;49136;47.416;19.402;2024-02-15T03:37:39;1999.90;;;999.90;;
63050;SDS011;49136;47.416;19.402;2024-02-15T03:40:05;1999.90;;;999.90;;
63050;SDS011;49136;47.416;19.402;2024-02-15T03:42:31;1999.90;;;999.90;;
63050;SDS011;49136;47.416;19.402;2024-02-15T03:44:56;1999.90;;;999.90;;
63050;SDS011;49136;47.416;19.402;2024-02-15T03:47:22;1999.90;;;999.90;;
63050;SDS011;49136;47.416;19.402;2024-02-15T03:49:48;1999.90;;;999.90;;
63050;SDS011;49136;47.416;19.402;2024-02-15T03:52:13;1999.90;;;999.90;;
63050;SDS011;49136;47.416;19.402;2024-02-15T03:54:38;1999.90;;;999.90;;
63050;SDS011;49136;47.416;19.402;2024-02-15T03:57:04;1999.90;;;999.90;;
63050;SDS011;49136;47.416;19.402;2024-02-15T03:59:31;1999.90;;;999.90;;
63050;SDS011;49136;47.416;19.402;2024-02-15T04:01:57;1999.90;;;999.90;;
63050;SDS011;49136;47.416;19.402;2024-02-15T04:04:23;1999.90;;;999.90;;
63050;SDS011;49136;47.416;19.402;2024-02-15T04:06:48;1999.90;;;999.90;;
63050;SDS011;49136;47.416;19.402;2024-02-15T04:09:14;1999.90;;;999.90;;
63050;SDS011;49136;47.416;19.402;2024-02-15T04:11:42;1999.90;;;999.90;;
63050;SDS011;49136;47.416;19.402;2024-02-15T04:14:08;1999.90;;;999.90;;
63050;SDS011;49136;47.416;19.402;2024-02-15T04:16:33;1999.90;;;999.90;;
63050;SDS011;49136;47.416;19.402;2024-02-15T04:19:01;1999.90;;;999.90;;
63050;SDS011;49136;47.416;19.402;2024-02-15T04:21:26;1999.90;;;999.90;;
63050;SDS011;49136;47.416;19.402;2024-02-15T04:23:52;1999.90;;;999.90;;
63050;SDS011;49136;47.416;19.402;2024-02-15T04:26:19;1999.90;;;999.90;;
63050;SDS011;49136;47.416;19.402;2024-02-15T04:28:44;1999.90;;;999.90;;
63050;SDS011;49136;47.416;19.402;2024-02-15T04:31:12;1999.90;;;999.90;;
63050;SDS011;49136;47.416;19.402;2024-02-15T04:33:38;1999.90;;;999.90;;
63050;SDS011;49136;47.416;19.402;2024-02-15T04:36:04;1999.90;;;999.90;;
63050;SDS011;49136;47.416;19.402;2024-02-15T04:38:32;1999.90;;;999.90;;
63050;SDS011;49136;47.416;19.402;2024-02-15T04:40:59;1999.90;;;999.90;;
63050;SDS011;49136;47.416;19.402;2024-02-15T04:43:26;1999.90;;;999.90;;
63050;SDS011;49136;47.416;19.402;2024-02-15T04:45:51;1999.90;;;999.90;;
63050;SDS011;49136;47.416;19.402;2024-02-15T04:48:17;1999.90;;;999.90;;
63050;SDS011;49136;47.416;19.402;2024-02-15T04:50:44;1999.90;;;999.90;;
63050;SDS011;49136;47.416;19.402;2024-02-15T04:53:10;1999.90;;;999.90;;
63050;SDS011;49136;47.416;19.402;2024-02-15T04:55:36;1999.90;;;999.90;;
63050;SDS011;49136;47.416;19.402;2024-02-15T04:58:02;1999.90;;;999.90;;
63050;SDS011;49136;47.416;19.402;2024-02-15T05:00:29;1999.90;;;999.90;;
63050;SDS011;49136;47.416;19.402;2024-02-15T05:02:55;1999.90;;;999.90;;
63050;SDS011;49136;47.416;19.402;2024-02-15T05:05:20;1999.90;;;999.90;;
63050;SDS011;49136;47.416;19.402;2024-02-15T05:07:47;1999.90;;;999.90;;
63050;SDS011;49136;47.416;19.402;2024-02-15T05:10:14;1999.90;;;999.90;;
63050;SDS011;49136;47.416;19.402;2024-02-15T05:12:41;1999.90;;;999.90;;
63050;SDS011;49136;47.416;19.402;2024-02-15T05:15:08;1999.90;;;999.90;;
63050;SDS011;49136;47.416;19.402;2024-02-15T05:17:40;1999.90;;;999.90;;
63050;SDS011;49136;47.416;19.402;2024-02-15T05:20:06;1999.90;;;999.90;;
63050;SDS011;49136;47.416;19.402;2024-02-15T05:22:36;1999.90;;;999.90;;
63050;SDS011;49136;47.416;19.402;2024-02-15T05:25:08;1999.90;;;999.90;;
63050;SDS011;49136;47.416;19.402;2024-02-15T05:27:34;1999.90;;;999.90;;
63050;SDS011;49136;47.416;19.402;2024-02-15T05:30:02;1999.90;;;999.90;;
63050;SDS011;49136;47.416;19.402;2024-02-15T05:32:34;1999.90;;;999.90;;
63050;SDS011;49136;47.416;19.402;2024-02-15T05:35:07;1999.90;;;999.90;;
63050;SDS011;49136;47.416;19.402;2024-02-15T05:37:39;1999.90;;;999.90;;
63050;SDS011;49136;47.416;19.402;2024-02-15T05:40:05;1999.90;;;999.90;;
63050;SDS011;49136;47.416;19.402;2024-02-15T05:42:32;1999.90;;;999.90;;
63050;SDS011;49136;47.416;19.402;2024-02-15T05:45:14;1999.90;;;999.90;;
63050;SDS011;49136;47.416;19.402;2024-02-15T05:48:03;1999.90;;;999.90;;
63050;SDS011;49136;47.416;19.402;2024-02-15T05:50:32;1999.90;;;999.90;;
63050;SDS011;49136;47.416;19.402;2024-02-15T05:52:57;1999.90;;;999.90;;
63050;SDS011;49136;47.416;19.402;2024-02-15T05:55:23;1999.90;;;999.90;;
63050;SDS011;49136;47.416;19.402;2024-02-15T05:57:51;1999.90;;;999.90;;
63050;SDS011;49136;47.416;19.402;2024-02-15T06:00:16;1999.90;;;999.90;;
63050;SDS011;49136;47.416;19.402;2024-02-15T06:02:44;1999.90;;;999.90;;
63050;SDS011;49136;47.416;19.402;2024-02-15T06:05:09;1999.90;;;999.90;;
63050;SDS011;49136;47.416;19.402;2024-02-15T06:07:36;1999.90;;;999.90;;
63050;SDS011;49136;47.416;19.402;2024-02-15T06:10:02;1999.90;;;999.90;;
63050;SDS011;49136;47.416;19.402;2024-02-15T06:12:30;1999.90;;;999.90;;
63050;SDS011;49136;47.416;19.402;2024-02-15T06:14:57;1999.90;;;999.90;;
63050;SDS011;49136;47.416;19.402;2024-02-15T06:17:22;1999.90;;;999.90;;
63050;SDS011;49136;47.416;19.402;2024-02-15T06:19:47;1999.90;;;999.90;;
63050;SDS011;49136;47.416;19.402;2024-02-15T06:22:13;1999.90;;;999.90;;
63050;SDS011;49136;47.416;19.402;2024-02-15T06:24:39;1999.90;;;999.90;;
63050;SDS011;49136;47.416;19.402;2024-02-15T06:27:06;1999.90;;;999.90;;
63050;SDS011;49136;47.416;19.402;2024-02-15T06:29:32;1999.90;;;999.90;;
63050;SDS011;49136;47.416;19.402;2024-02-15T06:32:16;1999.90;;;999.90;;
63050;SDS011;49136;47.416;19.402;2024-02-15T06:35:00;1999.90;;;999.90;;
63050;SDS011;49136;47.416;19.402;2024-02-15T06:37:44;1999.90;;;999.90;;
63050;SDS011;49136;47.416;19.402;2024-02-15T06:40:28;1999.90;;;999.90;;
63050;SDS011;49136;47.416;19.402;2024-02-15T06:42:53;1999.90;;;999.90;;
63050;SDS011;49136;47.416;19.402;2024-02-15T06:45:19;1999.90;;;999.90;;
63050;SDS011;49136;47.416;19.402;2024-02-15T06:47:44;1999.90;;;999.90;;
63050;SDS011;49136;47.416;19.402;2024-02-15T06:50:13;1999.90;;;999.90;;
63050;SDS011;49136;47.416;19.402;2024-02-15T06:52:42;1999.90;;;999.90;;
63050;SDS011;49136;47.416;19.402;2024-02-15T06:55:08;1999.90;;;999.90;;
63050;SDS011;49136;47.416;19.402;2024-02-15T06:57:37;1999.90;;;999.90;;
63050;SDS011;49136;47.416;19.402;2024-02-15T07:00:05;1999.90;;;999.90;;
63050;SDS011;49136;47.416;19.402;2024-02-15T07:02:34;1999.90;;;999.90;;
63050;SDS011;49136;47.416;19.402;2024-02-15T07:05:00;1999.90;;;999.90;;
63050;SDS011;49136;47.416;19.402;2024-02-15T07:07:27;1999.90;;;999.90;;
63050;SDS011;49136;47.416;19.402;2024-02-15T07:09:52;1999.90;;;999.90;;
63050;SDS011;49136;47.416;19.402;2024-02-15T07:12:18;1999.90;;;999.90;;
63050;SDS011;49136;47.416;19.402;2024-02-15T07:14:45;1999.90;;;999.90;;
63050;SDS011;49136;47.416;19.402;2024-02-15T07:17:12;1999.90;;;999.90;;
63050;SDS011;49136;47.416;19.402;2024-02-15T07:19:37;1999.90;;;999.90;;
63050;SDS011;49136;47.416;19.402;2024-02-15T07:22:03;1999.90;;;999.90;;
63050;SDS011;49136;47.416;19.402;2024-02-15T07:24:29;1999.90;;;999.90;;
63050;SDS011;49136;47.416;19.402;2024-02-15T07:26:54;1999.90;;;999.90;;
63050;SDS011;49136;47.416;19.402;2024-02-15T07:29:23;1999.90;;;999.90;;
63050;SDS011;49136;47.416;19.402;2024-02-15T07:31:49;1999.90;;;999.90;;
63050;SDS011;49136;47.416;19.402;2024-02-15T07:34:15;1999.90;;;999.90;;
63050;SDS011;49136;47.416;19.402;2024-02-15T07:36:41;1999.90;;;999.90;;
63050;SDS011;49136;47.416;19.402;2024-02-15T07:39:08;1999.90;;;999.90;;
63050;SDS011;49136;47.416;19.402;2024-02-15T07:41:37;1999.90;;;999.90;;
63050;SDS011;49136;47.416;19.402;2024-02-15T07:44:03;1999.90;;;999.90;;
63050;SDS011;49136;47.416;19.402;2024-02-15T07:46:29;1999.90;;;999.90;;
63050;SDS011;49136;47.416;19.402;2024-02-15T07:48:55;1999.90;;;999.90;;
63050;SDS011;49136;47.416;19.402;2024-02-15T07:51:21;1999.90;;;999.90;;
63050;SDS011;49136;47.416;19.402;2024-02-15T07:53:47;1999.90;;;999.90;;
63050;SDS011;49136;47.416;19.402;2024-02-15T07:56:14;1999.90;;;999.90;;
63050;SDS011;49136;47.416;19.402;2024-02-15T08:01:06;1999.90;;;999.90;;
63050;SDS011;49136;47.416;19.402;2024-02-15T08:03:33;1999.90;;;999.90;;
63050;SDS011;49136;47.416;19.402;2024-02-15T08:06:00;1999.90;;;999.90;;
63050;SDS011;49136;47.416;19.402;2024-02-15T08:08:25;1999.90;;;999.90;;
63050;SDS011;49136;47.416;19.402;2024-02-15T08:10:51;1999.90;;;999.90;;
63050;SDS011;49136;47.416;19.402;2024-02-15T08:13:16;1999.90;;;999.90;;
63050;SDS011;49136;47.416;19.402;2024-02-15T08:15:42;1999.90;;;999.90;;
63050;SDS011;49136;47.416;19.402;2024-02-15T08:18:09;1999.90;;;999.90;;
63050;SDS011;49136;47.416;19.402;2024-02-15T08:20:37;1999.90;;;999.90;;
63050;SDS011;49136;47.416;19.402;2024-02-15T08:23:05;1999.90;;;999.90;;
63050;SDS011;49136;47.416;19.402;2024-02-15T08:25:31;1999.90;;;999.90;;
63050;SDS011;49136;47.416;19.402;2024-02-15T08:27:56;1999.90;;;999.90;;
63050;SDS011;49136;47.416;19.402;2024-02-15T08:30:21;1999.90;;;999.90;;
63050;SDS011;49136;47.416;19.402;2024-02-15T08:32:47;1999.90;;;999.90;;
63050;SDS011;49136;47.416;19.402;2024-02-15T08:35:13;1999.90;;;999.90;;
63050;SDS011;49136;47.416;19.402;2024-02-15T08:37:39;1999.90;;;999.90;;
63050;SDS011;49136;47.416;19.402;2024-02-15T08:40:07;1999.90;;;999.90;;
63050;SDS011;49136;47.416;19.402;2024-02-15T08:42:38;1999.90;;;999.90;;
63050;SDS011;49136;47.416;19.402;2024-02-15T08:45:05;1999.90;;;999.90;;
63050;SDS011;49136;47.416;19.402;2024-02-15T08:47:33;1999.90;;;999.90;;
63050;SDS011;49136;47.416;19.402;2024-02-15T08:50:03;1999.90;;;999.90;;
63050;SDS011;49136;47.416;19.402;2024-02-15T08:52:29;1999.90;;;999.90;;
63050;SDS011;49136;47.416;19.402;2024-02-15T08:54:55;1999.90;;;999.90;;
63050;SDS011;49136;47.416;19.402;2024-02-15T08:57:22;1999.90;;;999.90;;
63050;SDS011;49136;47.416;19.402;2024-02-15T08:59:48;1999.90;;;999.90;;
63050;SDS011;49136;47.416;19.402;2024-02-15T09:02:13;1999.90;;;999.90;;
63050;SDS011;49136;47.416;19.402;2024-02-15T09:04:39;1195.95;;;683.47;;
63050;SDS011;49136;47.416;19.402;2024-02-15T09:07:06;1999.90;;;999.90;;
63050;SDS011;49136;47.416;19.402;2024-02-15T09:09:32;1999.90;;;999.90;;
63050;SDS011;49136;47.416;19.402;2024-02-15T09:12:01;1187.93;;;673.13;;
63050;SDS011;49136;47.416;19.402;2024-02-15T09:14:31;1999.90;;;999.90;;
63050;SDS011;49136;47.416;19.402;2024-02-15T09:16:58;1999.90;;;999.90;;
63050;SDS011;49136;47.416;19.402;2024-02-15T09:19:24;1166.75;;;654.35;;
63050;SDS011;49136;47.416;19.402;2024-02-15T09:21:49;778.63;;;501.27;;
63050;SDS011;49136;47.416;19.402;2024-02-15T09:24:14;1999.90;;;999.90;;
63050;SDS011;49136;47.416;19.402;2024-02-15T09:26:41;1999.90;;;999.90;;
63050;SDS011;49136;47.416;19.402;2024-02-15T09:29:07;1999.90;;;999.90;;
63050;SDS011;49136;47.416;19.402;2024-02-15T09:31:33;1999.90;;;999.90;;
63050;SDS011;49136;47.416;19.402;2024-02-15T09:34:00;1999.90;;;999.90;;
63050;SDS011;49136;47.416;19.402;2024-02-15T09:36:25;1999.90;;;999.90;;
63050;SDS011;49136;47.416;19.402;2024-02-15T09:38:50;1999.90;;;999.90;;
63050;SDS011;49136;47.416;19.402;2024-02-15T09:41:16;507.77;;;468.85;;
63050;SDS011;49136;47.416;19.402;2024-02-15T09:43:41;462.00;;;431.17;;
63050;SDS011;49136;47.416;19.402;2024-02-15T09:46:07;1999.90;;;999.90;;
63050;SDS011;49136;47.416;19.402;2024-02-15T09:48:33;1999.90;;;999.90;;
63050;SDS011;49136;47.416;19.402;2024-02-15T09:50:59;1999.90;;;999.90;;
63050;SDS011;49136;47.416;19.402;2024-02-15T09:53:26;490.35;;;454.55;;
63050;SDS011;49136;47.416;19.402;2024-02-15T09:55:53;1999.90;;;999.90;;
63050;SDS011;49136;47.416;19.402;2024-02-15T09:58:19;1999.90;;;999.90;;
63050;SDS011;49136;47.416;19.402;2024-02-15T10:00:48;1999.90;;;999.90;;
63050;SDS011;49136;47.416;19.402;2024-02-15T10:03:14;1999.90;;;999.90;;
63050;SDS011;49136;47.416;19.402;2024-02-15T10:05:43;1999.90;;;999.90;;
63050;SDS011;49136;47.416;19.402;2024-02-15T10:08:09;1999.90;;;999.90;;
63050;SDS011;49136;47.416;19.402;2024-02-15T10:10:36;1999.90;;;999.90;;
63050;SDS011;49136;47.416;19.402;2024-02-15T10:13:01;501.88;;;461.70;;
63050;SDS011;49136;47.416;19.402;2024-02-15T10:15:36;1999.90;;;999.90;;
63050;SDS011;49136;47.416;19.402;2024-02-15T10:18:06;1999.90;;;999.90;;
63050;SDS011;49136;47.416;19.402;2024-02-15T10:20:33;397.40;;;370.70;;
63050;SDS011;49136;47.416;19.402;2024-02-15T10:25:28;822.75;;;554.25;;
63050;SDS011;49136;47.416;19.402;2024-02-15T10:28:07;491.98;;;448.55;;
63050;SDS011;49136;47.416;19.402;2024-02-15T10:30:37;403.65;;;380.38;;
63050;SDS011;49136;47.416;19.402;2024-02-15T10:33:04;395.90;;;373.25;;
63050;SDS011;49136;47.416;19.402;2024-02-15T10:35:30;340.35;;;321.27;;
63050;SDS011;49136;47.416;19.402;2024-02-15T10:38:06;360.38;;;338.52;;
63050;SDS011;49136;47.416;19.402;2024-02-15T10:40:33;270.25;;;254.82;;
63050;SDS011;49136;47.416;19.402;2024-02-15T10:42:58;306.60;;;288.88;;
63050;SDS011;49136;47.416;19.402;2024-02-15T10:45:25;270.83;;;255.68;;
63050;SDS011;49136;47.416;19.402;2024-02-15T10:47:50;226.68;;;211.95;;
63050;SDS011;49136;47.416;19.402;2024-02-15T10:50:17;232.20;;;218.60;;
63050;SDS011;49136;47.416;19.402;2024-02-15T10:52:48;344.40;;;322.67;;
63050;SDS011;49136;47.416;19.402;2024-02-15T10:58:05;218.85;;;205.00;;
63050;SDS011;49136;47.416;19.402;2024-02-15T11:00:35;269.45;;;252.13;;
63050;SDS011;49136;47.416;19.402;2024-02-15T11:03:05;246.45;;;231.57;;
63050;SDS011;49136;47.416;19.402;2024-02-15T11:05:36;200.85;;;189.15;;
63050;SDS011;49136;47.416;19.402;2024-02-15T11:08:07;316.85;;;296.52;;
63050;SDS011;49136;47.416;19.402;2024-02-15T11:10:34;173.15;;;163.30;;
63050;SDS011;49136;47.416;19.402;2024-02-15T11:13:01;150.40;;;142.45;;
63050;SDS011;49136;47.416;19.402;2024-02-15T11:21:09;154.73;;;146.52;;
63050;SDS011;49136;47.416;19.402;2024-02-15T11:23:35;153.60;;;145.00;;
63050;SDS011;49136;47.416;19.402;2024-02-15T11:26:00;178.38;;;167.77;;
63050;SDS011;49136;47.416;19.402;2024-02-15T11:30:54;129.45;;;122.13;;
63050;SDS011;49136;47.416;19.402;2024-02-15T11:38:36;93.00;;;88.22;;
63050;SDS011;49136;47.416;19.402;2024-02-15T11:41:02;131.45;;;123.70;;
63050;SDS011;49136;47.416;19.402;2024-02-15T11:46:16;89.43;;;84.63;;
63050;SDS011;49136;47.416;19.402;2024-02-15T11:48:43;134.55;;;126.75;;
63050;SDS011;49136;47.416;19.402;2024-02-15T11:56:31;102.80;;;97.30;;
63050;SDS011;49136;47.416;19.402;2024-02-15T11:59:08;80.57;;;76.22;;
63050;SDS011;49136;47.416;19.402;2024-02-15T12:01:37;105.95;;;100.07;;
63050;SDS011;49136;47.416;19.402;2024-02-15T12:04:22;104.18;;;96.28;;
63050;SDS011;49136;47.416;19.402;2024-02-15T12:07:06;105.18;;;99.40;;
63050;SDS011;49136;47.416;19.402;2024-02-15T12:09:50;121.95;;;114.00;;
63050;SDS011;49136;47.416;19.402;2024-02-15T12:12:50;94.18;;;88.65;;
63050;SDS011;49136;47.416;19.402;2024-02-15T12:15:34;104.30;;;98.22;;
63050;SDS011;49136;47.416;19.402;2024-02-15T12:18:18;105.35;;;99.18;;
63050;SDS011;49136;47.416;19.402;2024-02-15T12:21:03;111.07;;;104.65;;
63050;SDS011;49136;47.416;19.402;2024-02-15T12:23:30;126.65;;;119.60;;
63050;SDS011;49136;47.416;19.402;2024-02-15T12:25:59;114.53;;;107.60;;
63050;SDS011;49136;47.416;19.402;2024-02-15T12:28:25;131.05;;;122.85;;
63050;SDS011;49136;47.416;19.402;2024-02-15T12:30:54;146.20;;;137.45;;
63050;SDS011;49136;47.416;19.402;2024-02-15T12:33:23;108.78;;;102.63;;
63050;SDS011;49136;47.416;19.402;2024-02-15T12:35:49;137.27;;;128.43;;
63050;SDS011;49136;47.416;19.402;2024-02-15T12:38:29;113.30;;;106.43;;
63050;SDS011;49136;47.416;19.402;2024-02-15T12:40:54;123.63;;;115.22;;
63050;SDS011;49136;47.416;19.402;2024-02-15T12:43:19;104.20;;;98.05;;
63050;SDS011;49136;47.416;19.402;2024-02-15T12:45:46;157.85;;;148.20;;
63050;SDS011;49136;47.416;19.402;2024-02-15T12:48:11;83.07;;;78.47;;
63050;SDS011;49136;47.416;19.402;2024-02-15T12:50:36;122.70;;;115.00;;
63050;SDS011;49136;47.416;19.402;2024-02-15T12:53:02;93.78;;;87.97;;
63050;SDS011;49136;47.416;19.402;2024-02-15T12:55:51;109.63;;;103.22;;
63050;SDS011;49136;47.416;19.402;2024-02-15T12:58:20;87.05;;;82.20;;
63050;SDS011;49136;47.416;19.402;2024-02-15T13:00:46;110.63;;;104.15;;
63050;SDS011;49136;47.416;19.402;2024-02-15T13:03:11;127.25;;;119.93;;
63050;SDS011;49136;47.416;19.402;2024-02-15T13:05:39;123.18;;;115.47;;
63050;SDS011;49136;47.416;19.402;2024-02-15T13:08:04;119.80;;;112.97;;
63050;SDS011;49136;47.416;19.402;2024-02-15T13:10:34;129.05;;;120.88;;
63050;SDS011;49136;47.416;19.402;2024-02-15T13:13:00;130.82;;;122.97;;
63050;SDS011;49136;47.416;19.402;2024-02-15T13:15:26;126.50;;;119.10;;
63050;SDS011;49136;47.416;19.402;2024-02-15T13:17:53;96.40;;;90.78;;
63050;SDS011;49136;47.416;19.402;2024-02-15T13:20:22;120.35;;;113.32;;
63050;SDS011;49136;47.416;19.402;2024-02-15T13:23:07;102.35;;;96.15;;
63050;SDS011;49136;47.416;19.402;2024-02-15T13:25:37;86.95;;;81.72;;
63050;SDS011;49136;47.416;19.402;2024-02-15T13:28:04;95.15;;;89.90;;
63050;SDS011;49136;47.416;19.402;2024-02-15T13:30:30;100.65;;;94.78;;
63050;SDS011;49136;47.416;19.402;2024-02-15T13:32:56;121.68;;;114.55;;
63050;SDS011;49136;47.416;19.402;2024-02-15T13:35:22;141.82;;;132.43;;
63050;SDS011;49136;47.416;19.402;2024-02-15T13:37:52;137.52;;;129.77;;
63050;SDS011;49136;47.416;19.402;2024-02-15T13:40:19;136.00;;;127.97;;
63050;SDS011;49136;47.416;19.402;2024-02-15T13:42:48;101.22;;;95.68;;
63050;SDS011;49136;47.416;19.402;2024-02-15T13:45:17;112.38;;;106.18;;
63050;SDS011;49136;47.416;19.402;2024-02-15T13:48:06;115.18;;;108.20;;
63050;SDS011;49136;47.416;19.402;2024-02-15T13:50:32;108.70;;;102.55;;
63050;SDS011;49136;47.416;19.402;2024-02-15T13:52:58;92.22;;;86.70;;
63050;SDS011;49136;47.416;19.402;2024-02-15T13:55:24;105.47;;;99.28;;
63050;SDS011;49136;47.416;19.402;2024-02-15T13:57:54;166.85;;;156.57;;
63050;SDS011;49136;47.416;19.402;2024-02-15T14:00:21;124.30;;;117.00;;
63050;SDS011;49136;47.416;19.402;2024-02-15T14:02:51;268.50;;;247.25;;
63050;SDS011;49136;47.416;19.402;2024-02-15T14:05:18;85.30;;;80.70;;
63050;SDS011;49136;47.416;19.402;2024-02-15T14:07:49;200.65;;;184.75;;